createdAt,value
2023-02-16T00:01:22.261Z,75.73
2023-02-16T00:03:51.397Z,75.20
2023-02-16T00:06:19.578Z,74.49
2023-02-16T00:08:49.452Z,74.66
2023-02-16T00:11:39.637Z,75.42
2023-02-16T00:14:11.102Z,74.87
2023-02-16T00:16:39.580Z,75.16
2023-02-16T00:19:18.045Z,76.17
2023-02-16T00:21:45.990Z,76.00
2023-02-16T00:24:13.931Z,76.51
2023-02-16T00:26:44.221Z,75.36
2023-02-16T00:29:16.674Z,75.37
2023-02-16T00:31:44.736Z,74.99
2023-02-16T00:34:31.722Z,75.08
2023-02-16T00:37:02.752Z,75.34
2023-02-16T00:39:31.322Z,74.96
2023-02-16T00:42:05.440Z,74.79
2023-02-16T00:44:37.977Z,75.00
2023-02-16T00:47:18.845Z,74.47
2023-02-16T00:49:46.859Z,74.74
2023-02-16T00:52:32.385Z,74.59
2023-02-16T00:55:01.293Z,74.92
2023-02-16T00:57:35.236Z,75.14
2023-02-16T01:00:09.434Z,75.03
2023-02-16T01:02:37.384Z,75.23
2023-02-16T01:05:05.756Z,75.21
2023-02-16T01:07:51.330Z,75.04
2023-02-16T01:10:38.118Z,74.92
2023-02-16T01:13:07.447Z,74.89
2023-02-16T01:15:36.825Z,75.05
2023-02-16T01:18:05.031Z,75.62
2023-02-16T01:20:33.077Z,75.58
2023-02-16T01:23:01.042Z,75.47
2023-02-16T01:25:29.323Z,75.82
2023-02-16T01:27:57.241Z,75.42
2023-02-16T01:30:27.601Z,76.35
2023-02-16T01:32:55.963Z,75.98
2023-02-16T01:35:28.140Z,75.41
2023-02-16T01:37:56.039Z,75.99
2023-02-16T01:40:36.925Z,76.15
2023-02-16T01:43:12.255Z,75.66
2023-02-16T01:45:44.317Z,76.15
2023-02-16T01:48:22.053Z,75.38
2023-02-16T01:50:55.578Z,76.01
2023-02-16T01:53:30.444Z,76.14
2023-02-16T01:56:04.546Z,76.52
2023-02-16T01:58:37.908Z,77.40
2023-02-16T02:01:53.690Z,76.69
2023-02-16T02:04:47.090Z,76.50
2023-02-16T02:07:23.090Z,76.29
2023-02-16T02:09:58.227Z,76.76
2023-02-16T02:12:33.858Z,76.33
2023-02-16T02:15:02.392Z,76.36
2023-02-16T02:17:32.490Z,76.48
2023-02-16T02:20:09.269Z,76.21
2023-02-16T02:23:31.060Z,76.36
2023-02-16T02:26:32.616Z,75.94
2023-02-16T02:29:14.356Z,76.28
2023-02-16T02:31:53.047Z,76.83
2023-02-16T02:34:30.019Z,75.90
2023-02-16T02:37:09.429Z,75.80
2023-02-16T02:39:47.961Z,76.32
2023-02-16T02:42:24.549Z,76.41
2023-02-16T02:45:00.153Z,76.51
2023-02-16T02:47:39.615Z,76.04
2023-02-16T02:50:35.544Z,75.79
2023-02-16T02:53:09.515Z,76.10
2023-02-16T02:56:00.836Z,76.76
2023-02-16T02:58:52.588Z,76.19
2023-02-16T03:01:23.543Z,76.56
2023-02-16T03:03:57.112Z,76.01
2023-02-16T03:06:28.567Z,75.94
2023-02-16T03:09:01.427Z,75.83
2023-02-16T03:11:48.364Z,76.14
2023-02-16T03:14:19.579Z,76.58
2023-02-16T03:17:11.280Z,76.76
2023-02-16T03:19:59.700Z,76.56
2023-02-16T03:22:45.407Z,75.90
2023-02-16T03:25:31.290Z,76.12
2023-02-16T03:28:18.906Z,76.05
2023-02-16T03:30:48.845Z,76.21
2023-02-16T03:33:18.726Z,76.11
2023-02-16T03:35:47.279Z,75.59
2023-02-16T03:38:15.218Z,76.38
2023-02-16T03:40:45.325Z,76.83
2023-02-16T03:43:13.294Z,76.20
2023-02-16T03:45:44.283Z,76.68
2023-02-16T03:48:12.824Z,75.99
2023-02-16T03:50:42.235Z,76.22
2023-02-16T03:53:10.185Z,75.81
2023-02-16T03:55:40.791Z,75.92
2023-02-16T03:58:10.505Z,76.23
2023-02-16T04:00:39.119Z,76.07
2023-02-16T04:03:08.829Z,75.88
2023-02-16T04:05:36.981Z,75.50
2023-02-16T04:08:06.885Z,75.28
2023-02-16T04:10:34.760Z,75.38
2023-02-16T04:13:02.135Z,74.79
2023-02-16T04:15:32.021Z,75.12
2023-02-16T04:17:59.934Z,74.59
2023-02-16T04:20:29.906Z,74.35
2023-02-16T04:22:58.086Z,74.97
2023-02-16T04:25:27.487Z,74.88
2023-02-16T04:27:55.953Z,74.79
2023-02-16T04:30:26.806Z,75.09
2023-02-16T04:32:54.750Z,74.34
2023-02-16T04:35:23.254Z,74.65
2023-02-16T04:37:51.231Z,74.24
2023-02-16T04:40:19.671Z,74.75
2023-02-16T04:42:48.879Z,74.63
2023-02-16T04:45:16.773Z,74.43
2023-02-16T04:47:44.770Z,74.24
2023-02-16T04:50:13.529Z,74.26
2023-02-16T04:52:41.471Z,73.79
2023-02-16T04:55:10.794Z,74.13
2023-02-16T04:57:39.050Z,73.95
2023-02-16T05:00:11.692Z,73.97
2023-02-16T05:02:39.667Z,73.82
2023-02-16T05:05:08.643Z,74.00
2023-02-16T05:07:37.201Z,74.19
2023-02-16T05:10:06.048Z,74.18
2023-02-16T05:12:51.315Z,74.13
2023-02-16T05:15:20.590Z,74.20
2023-02-16T05:17:48.481Z,74.52
2023-02-16T05:20:16.373Z,74.61
2023-02-16T05:22:45.657Z,74.44
2023-02-16T05:25:13.865Z,74.63
2023-02-16T05:27:41.759Z,73.78
2023-02-16T05:30:10.582Z,73.91
2023-02-16T05:32:39.829Z,74.04
2023-02-16T05:35:07.869Z,74.05
2023-02-16T05:37:35.805Z,73.92
2023-02-16T05:40:03.782Z,73.38
2023-02-16T05:42:31.754Z,74.05
2023-02-16T05:44:59.651Z,74.08
2023-02-16T05:47:27.509Z,73.81
2023-02-16T05:49:56.765Z,74.16
2023-02-16T05:52:24.792Z,73.75
2023-02-16T05:54:52.678Z,73.77
2023-02-16T05:57:20.539Z,74.13
2023-02-16T05:59:48.390Z,74.18
2023-02-16T06:02:16.547Z,74.08
2023-02-16T06:04:44.413Z,73.22
2023-02-16T06:07:14.895Z,73.85
2023-02-16T06:09:42.955Z,73.39
2023-02-16T06:12:10.877Z,73.39
2023-02-16T06:14:38.746Z,72.63
2023-02-16T06:17:06.622Z,72.95
2023-02-16T06:19:34.505Z,73.18
2023-02-16T06:22:02.498Z,73.11
2023-02-16T06:24:31.855Z,72.57
2023-02-16T06:27:00.143Z,72.25
2023-02-16T06:29:28.062Z,72.01
2023-02-16T06:31:56.191Z,72.04
2023-02-16T06:34:24.194Z,72.01
2023-02-16T06:36:52.040Z,71.97
2023-02-16T06:39:20.049Z,71.45
2023-02-16T06:41:49.370Z,71.06
2023-02-16T06:44:18.343Z,71.53
2023-02-16T06:46:48.582Z,71.55
2023-02-16T06:49:19.068Z,71.26
2023-02-16T06:51:47.467Z,71.22
2023-02-16T06:54:16.268Z,71.22
2023-02-16T06:56:44.154Z,70.90
2023-02-16T06:59:13.730Z,70.08
2023-02-16T07:01:44.080Z,70.27
2023-02-16T07:04:12.800Z,70.69
2023-02-16T07:06:41.249Z,70.42
2023-02-16T07:09:10.642Z,70.26
2023-02-16T07:11:39.449Z,69.90
2023-02-16T07:14:07.339Z,70.03
2023-02-16T07:16:36.708Z,69.50
2023-02-16T07:19:05.597Z,68.62
2023-02-16T07:21:33.532Z,69.64
2023-02-16T07:24:01.421Z,68.85
2023-02-16T07:26:29.338Z,69.03
2023-02-16T07:28:57.200Z,68.96
2023-02-16T07:31:26.593Z,69.55
2023-02-16T07:33:55.853Z,68.59
2023-02-16T07:36:23.901Z,67.77
2023-02-16T07:38:51.769Z,68.19
2023-02-16T07:41:19.659Z,68.75
2023-02-16T07:43:48.206Z,68.22
2023-02-16T07:46:16.078Z,69.07
2023-02-16T07:48:43.934Z,68.98
2023-02-16T07:51:13.189Z,68.97
2023-02-16T07:53:41.076Z,69.83
2023-02-16T07:56:08.867Z,68.62
2023-02-16T07:58:36.822Z,68.28
2023-02-16T08:01:10.003Z,68.18
2023-02-16T08:03:38.026Z,68.50
2023-02-16T08:06:07.575Z,68.33
2023-02-16T08:08:37.369Z,68.52
2023-02-16T08:11:10.441Z,67.35
2023-02-16T08:13:38.183Z,67.47
2023-02-16T08:16:09.536Z,66.99
2023-02-16T08:18:37.474Z,66.70
2023-02-16T08:21:13.894Z,67.39
2023-02-16T08:23:47.530Z,67.72
2023-02-16T08:26:18.258Z,67.75
2023-02-16T08:28:47.342Z,67.16
2023-02-16T08:31:17.294Z,68.43
2023-02-16T08:33:45.788Z,67.92
2023-02-16T08:36:21.034Z,67.41
2023-02-16T08:38:51.172Z,67.09
2023-02-16T08:41:19.516Z,67.22
2023-02-16T08:43:47.887Z,67.01
2023-02-16T08:46:16.954Z,66.00
2023-02-16T08:48:46.129Z,66.41
2023-02-16T08:51:15.540Z,66.11
2023-02-16T08:53:44.071Z,66.52
2023-02-16T08:56:14.377Z,66.76
2023-02-16T08:58:44.630Z,65.61
2023-02-16T09:01:13.079Z,64.71
2023-02-16T09:03:42.911Z,63.47
2023-02-16T09:06:13.256Z,62.21
2023-02-16T09:08:41.990Z,61.59
2023-02-16T09:11:14.745Z,60.55
2023-02-16T09:13:43.713Z,61.29
2023-02-16T09:16:14.164Z,58.60
2023-02-16T09:18:42.796Z,58.83
2023-02-16T09:21:14.985Z,59.23
2023-02-16T09:23:47.426Z,58.61
2023-02-16T09:26:17.552Z,58.10
2023-02-16T09:28:47.216Z,58.17
2023-02-16T09:31:20.091Z,58.55
2023-02-16T09:33:48.133Z,56.55
2023-02-16T09:36:16.318Z,56.95
2023-02-16T09:38:44.258Z,57.41
2023-02-16T09:41:27.017Z,56.42
2023-02-16T09:43:59.257Z,57.04
2023-02-16T09:46:29.688Z,56.49
2023-02-16T09:48:57.928Z,55.06
2023-02-16T09:51:34.751Z,54.00
2023-02-16T09:54:15.343Z,54.81
2023-02-16T09:56:50.325Z,54.23
2023-02-16T09:59:33.164Z,53.59
2023-02-16T10:02:16.295Z,53.30
2023-02-16T10:04:48.837Z,52.48
2023-02-16T10:07:29.658Z,53.04
2023-02-16T10:09:58.490Z,51.44
2023-02-16T10:12:34.550Z,50.96
2023-02-16T10:15:08.196Z,50.47
2023-02-16T10:17:46.952Z,50.44
2023-02-16T10:20:17.746Z,49.66
2023-02-16T10:22:51.413Z,52.40
2023-02-16T10:25:23.496Z,50.39
2023-02-16T10:28:12.493Z,49.55
2023-02-16T10:30:44.073Z,50.86
2023-02-16T10:33:17.147Z,50.11
2023-02-16T10:35:48.891Z,49.51
2023-02-16T10:38:27.688Z,49.68
2023-02-16T10:40:59.943Z,50.24
2023-02-16T10:43:41.335Z,48.94
2023-02-16T10:46:12.817Z,47.72
2023-02-16T10:48:40.896Z,47.12
2023-02-16T10:51:12.721Z,47.36
2023-02-16T10:53:44.955Z,47.11
2023-02-16T10:56:40.400Z,47.19
2023-02-16T10:59:17.053Z,48.51
2023-02-16T11:01:46.897Z,47.22
2023-02-16T11:04:37.682Z,48.22
2023-02-16T11:07:08.510Z,47.44
2023-02-16T11:09:37.295Z,47.19
2023-02-16T11:12:16.750Z,47.44
2023-02-16T11:14:51.636Z,45.95
2023-02-16T11:17:22.283Z,46.26
2023-02-16T11:19:54.099Z,46.64
2023-02-16T11:22:34.520Z,46.83
2023-02-16T11:25:22.048Z,47.40
2023-02-16T11:27:55.498Z,45.92
2023-02-16T11:30:32.796Z,45.47
2023-02-16T11:33:04.553Z,45.34
2023-02-16T11:35:41.322Z,45.23
2023-02-16T11:38:27.169Z,44.68
2023-02-16T11:40:56.659Z,44.43
2023-02-16T11:43:29.446Z,44.88
2023-02-16T11:46:05.211Z,44.41
2023-02-16T11:48:34.386Z,44.07
2023-02-16T11:51:04.544Z,42.62
2023-02-16T11:53:33.988Z,43.26
2023-02-16T11:56:22.256Z,43.16
2023-02-16T11:59:13.940Z,42.97
2023-02-16T12:01:57.193Z,43.15
2023-02-16T12:04:38.326Z,42.14
2023-02-16T12:07:16.522Z,42.06
2023-02-16T12:09:54.811Z,42.62
2023-02-16T12:12:34.220Z,42.78
2023-02-16T12:15:07.666Z,42.59
2023-02-16T12:17:49.702Z,43.22
2023-02-16T12:20:33.244Z,42.34
2023-02-16T12:23:15.734Z,42.86
2023-02-16T12:25:51.832Z,42.39
2023-02-16T12:28:29.356Z,41.74
2023-02-16T12:31:06.167Z,41.73
2023-02-16T12:33:47.980Z,42.38
2023-02-16T12:36:46.291Z,41.96
2023-02-16T12:39:21.352Z,42.37
2023-02-16T12:41:58.515Z,42.66
2023-02-16T12:44:33.866Z,42.95
2023-02-16T12:47:04.789Z,42.60
2023-02-16T12:49:53.068Z,43.11
2023-02-16T12:52:32.422Z,44.23
2023-02-16T12:55:19.953Z,44.21
2023-02-16T12:57:55.665Z,45.03
2023-02-16T13:00:39.726Z,44.45
2023-02-16T13:03:21.873Z,44.70
2023-02-16T13:06:08.179Z,44.45
2023-02-16T13:08:43.390Z,43.63
2023-02-16T13:11:18.697Z,43.66
2023-02-16T13:13:48.962Z,45.00
2023-02-16T13:16:29.951Z,44.43
2023-02-16T13:18:58.940Z,43.77
2023-02-16T13:22:12.875Z,43.93
2023-02-16T13:24:55.252Z,43.92
2023-02-16T13:27:33.362Z,45.03
2023-02-16T13:30:17.073Z,44.57
2023-02-16T13:33:09.598Z,45.33
2023-02-16T13:36:07.652Z,43.99
2023-02-16T13:39:10.458Z,44.21
2023-02-16T13:42:06.519Z,44.18
2023-02-16T13:44:38.630Z,44.55
2023-02-16T13:47:13.669Z,45.35
2023-02-16T13:49:43.563Z,44.72
2023-02-16T13:52:12.850Z,44.64
2023-02-16T13:54:43.752Z,45.10
2023-02-16T13:57:13.379Z,44.39
2023-02-16T14:00:05.689Z,44.65
2023-02-16T14:02:57.107Z,44.92
2023-02-16T14:05:26.499Z,44.62
2023-02-16T14:08:27.617Z,44.76
2023-02-16T14:11:14.514Z,45.05
2023-02-16T14:13:49.089Z,44.48
2023-02-16T14:16:35.097Z,44.00
2023-02-16T14:19:17.706Z,44.08
2023-02-16T14:21:48.219Z,44.87
2023-02-16T14:24:31.071Z,45.01
2023-02-16T14:27:02.849Z,44.82
2023-02-16T14:29:34.057Z,45.08
2023-02-16T14:32:07.555Z,45.09
2023-02-16T14:34:42.485Z,44.53
2023-02-16T14:37:30.194Z,44.41
2023-02-16T14:40:08.673Z,44.99
2023-02-16T14:42:38.069Z,44.83
2023-02-16T14:45:22.983Z,45.19
2023-02-16T14:47:59.976Z,45.21
2023-02-16T14:50:40.689Z,45.70
2023-02-16T14:53:57.906Z,45.19
2023-02-16T14:56:38.385Z,45.05
2023-02-16T14:59:18.144Z,45.31
2023-02-16T15:01:47.272Z,45.77
2023-02-16T15:04:29.120Z,45.65
2023-02-16T15:06:59.866Z,45.60
2023-02-16T15:09:31.872Z,45.91
2023-02-16T15:12:21.519Z,45.76
2023-02-16T15:14:54.540Z,46.23
2023-02-16T15:17:30.080Z,46.42
2023-02-16T15:20:04.429Z,47.23
2023-02-16T15:22:33.475Z,45.74
2023-02-16T15:25:03.371Z,46.42
2023-02-16T15:27:32.966Z,45.73
2023-02-16T15:30:22.534Z,46.68
2023-02-16T15:32:53.360Z,46.31
2023-02-16T15:35:27.942Z,46.08
2023-02-16T15:38:10.998Z,46.40
2023-02-16T15:40:40.096Z,46.46
2023-02-16T15:43:23.889Z,46.97
2023-02-16T15:45:54.805Z,46.70
2023-02-16T15:48:30.174Z,46.69
2023-02-16T15:51:03.038Z,46.93
2023-02-16T15:53:38.319Z,46.88
2023-02-16T15:56:21.516Z,46.67
2023-02-16T15:59:05.245Z,47.10
2023-02-16T16:01:36.676Z,47.14
2023-02-16T16:04:09.343Z,47.59
2023-02-16T16:06:40.982Z,47.42
2023-02-16T16:09:18.727Z,47.53
2023-02-16T16:11:46.747Z,47.45
2023-02-16T16:14:15.430Z,48.34
2023-02-16T16:16:46.493Z,47.85
2023-02-16T16:19:20.162Z,48.93
2023-02-16T16:21:51.892Z,48.24
2023-02-16T16:24:34.119Z,47.91
2023-02-16T16:27:05.532Z,48.58
2023-02-16T16:29:38.170Z,48.59
2023-02-16T16:32:18.308Z,48.33
2023-02-16T16:34:46.601Z,48.57
2023-02-16T16:37:27.059Z,49.26
2023-02-16T16:40:05.404Z,49.22
2023-02-16T16:42:34.739Z,49.37
2023-02-16T16:45:07.510Z,49.36
2023-02-16T16:47:40.070Z,48.98
2023-02-16T16:50:30.380Z,49.32
2023-02-16T16:52:58.871Z,49.06
2023-02-16T16:55:33.246Z,49.64
2023-02-16T16:58:03.374Z,50.31
2023-02-16T17:00:35.219Z,49.74
2023-02-16T17:03:06.258Z,49.93
2023-02-16T17:05:34.496Z,50.01
2023-02-16T17:08:02.741Z,50.31
2023-02-16T17:10:30.726Z,50.12
2023-02-16T17:13:00.822Z,50.09
2023-02-16T17:15:34.358Z,51.18
2023-02-16T17:18:03.984Z,50.77
2023-02-16T17:20:32.031Z,50.92
2023-02-16T17:23:04.517Z,51.16
2023-02-16T17:25:35.003Z,50.90
2023-02-16T17:28:03.716Z,52.38
2023-02-16T17:30:31.653Z,52.40
2023-02-16T17:32:59.598Z,51.77
2023-02-16T17:35:29.455Z,51.85
2023-02-16T17:37:57.307Z,50.89
2023-02-16T17:40:26.233Z,51.06
2023-02-16T17:42:54.092Z,50.72
2023-02-16T17:45:23.167Z,51.55
2023-02-16T17:47:53.580Z,51.55
2023-02-16T17:50:22.069Z,51.21
2023-02-16T17:52:57.034Z,51.46
2023-02-16T17:55:24.971Z,51.25
2023-02-16T17:57:53.011Z,51.47
2023-02-16T18:00:22.583Z,51.57
2023-02-16T18:02:50.476Z,51.51
2023-02-16T18:05:18.521Z,52.11
2023-02-16T18:07:46.374Z,52.08
2023-02-16T18:10:33.068Z,52.55
2023-02-16T18:13:00.991Z,52.60
2023-02-16T18:15:29.035Z,52.49
2023-02-16T18:17:57.170Z,52.23
2023-02-16T18:20:26.545Z,52.21
2023-02-16T18:22:54.725Z,52.61
2023-02-16T18:25:24.360Z,52.53
2023-02-16T18:27:52.236Z,53.14
2023-02-16T18:30:20.348Z,53.28
2023-02-16T18:32:48.243Z,52.92
2023-02-16T18:35:17.120Z,52.59
2023-02-16T18:37:45.755Z,53.17
2023-02-16T18:40:16.687Z,52.67
2023-02-16T18:42:45.988Z,53.03
2023-02-16T18:45:13.893Z,53.90
2023-02-16T18:47:42.612Z,53.15
2023-02-16T18:50:11.606Z,53.49
2023-02-16T18:52:42.311Z,53.02
2023-02-16T18:55:10.806Z,52.41
2023-02-16T18:57:38.896Z,53.51
2023-02-16T19:00:09.934Z,53.55
2023-02-16T19:02:37.988Z,53.90
2023-02-16T19:05:06.947Z,54.11
2023-02-16T19:07:35.075Z,53.91
2023-02-16T19:10:03.278Z,53.77
2023-02-16T19:12:31.236Z,53.47
2023-02-16T19:14:59.093Z,53.52
2023-02-16T19:17:28.287Z,53.49
2023-02-16T19:19:56.234Z,53.30
2023-02-16T19:22:24.101Z,53.38
2023-02-16T19:24:52.162Z,53.50
2023-02-16T19:27:20.159Z,53.40
2023-02-16T19:29:48.252Z,52.62
2023-02-16T19:32:16.130Z,52.36
2023-02-16T19:34:45.450Z,52.86
2023-02-16T19:37:13.554Z,53.20
2023-02-16T19:39:41.470Z,53.14
2023-02-16T19:42:09.453Z,52.73
2023-02-16T19:44:37.344Z,53.47
2023-02-16T19:47:05.295Z,53.85
2023-02-16T19:49:33.638Z,53.10
2023-02-16T19:52:04.295Z,53.59
2023-02-16T19:54:34.900Z,52.77
2023-02-16T19:57:03.147Z,52.55
2023-02-16T19:59:31.470Z,52.78
2023-02-16T20:01:59.537Z,52.66
2023-02-16T20:04:27.469Z,52.11
2023-02-16T20:06:56.478Z,51.84
2023-02-16T20:09:26.111Z,52.41
2023-02-16T20:11:53.976Z,52.35
2023-02-16T20:14:21.851Z,52.49
2023-02-16T20:16:51.750Z,51.96
2023-02-16T20:19:20.109Z,52.83
2023-02-16T20:21:48.037Z,52.21
2023-02-16T20:24:16.341Z,52.64
2023-02-16T20:26:49.152Z,52.05
2023-02-16T20:29:17.279Z,52.27
2023-02-16T20:31:49.961Z,51.99
2023-02-16T20:34:19.154Z,51.99
2023-02-16T20:36:47.093Z,52.55
2023-02-16T20:39:15.273Z,53.47
2023-02-16T20:41:43.190Z,53.22
2023-02-16T20:44:12.946Z,54.20
2023-02-16T20:46:41.836Z,56.16
2023-02-16T20:49:10.720Z,54.92
2023-02-16T20:51:39.197Z,56.01
2023-02-16T20:54:07.179Z,57.18
2023-02-16T20:56:35.177Z,58.25
2023-02-16T20:59:03.388Z,57.71
2023-02-16T21:01:37.089Z,58.12
2023-02-16T21:04:06.085Z,60.09
2023-02-16T21:06:34.415Z,59.26
2023-02-16T21:09:02.352Z,58.63
2023-02-16T21:11:30.320Z,59.82
2023-02-16T21:13:58.509Z,59.55
2023-02-16T21:16:27.047Z,59.78
2023-02-16T21:18:56.379Z,59.42
2023-02-16T21:21:25.047Z,59.74
2023-02-16T21:23:55.200Z,59.90
2023-02-16T21:26:26.020Z,58.82
2023-02-16T21:28:54.472Z,59.27
2023-02-16T21:31:25.115Z,59.21
2023-02-16T21:33:53.684Z,59.19
2023-02-16T21:36:25.153Z,58.97
2023-02-16T21:38:53.503Z,60.66
2023-02-16T21:41:25.276Z,59.54
2023-02-16T21:44:00.600Z,59.68
2023-02-16T21:46:30.801Z,59.65
2023-02-16T21:48:58.393Z,59.44
2023-02-16T21:51:29.584Z,59.80
2023-02-16T21:53:58.816Z,58.99
2023-02-16T21:56:38.989Z,59.40
2023-02-16T21:59:09.696Z,58.71
2023-02-16T22:01:40.400Z,59.93
2023-02-16T22:04:08.469Z,61.05
2023-02-16T22:06:40.226Z,61.16
2023-02-16T22:09:10.511Z,60.89
2023-02-16T22:11:39.113Z,60.51
2023-02-16T22:14:07.390Z,60.29
2023-02-16T22:16:37.203Z,61.29
2023-02-16T22:19:07.458Z,61.22
2023-02-16T22:21:38.393Z,60.54
2023-02-16T22:24:07.368Z,60.50
2023-02-16T22:26:36.908Z,61.20
2023-02-16T22:29:06.438Z,61.62
2023-02-16T22:31:35.261Z,61.35
2023-02-16T22:34:05.728Z,61.30
2023-02-16T22:36:34.037Z,61.88
2023-02-16T22:39:03.249Z,62.50
2023-02-16T22:41:31.205Z,62.44
2023-02-16T22:44:00.044Z,62.25
2023-02-16T22:46:29.622Z,62.31
2023-02-16T22:48:59.291Z,62.92
2023-02-16T22:51:29.278Z,62.43
2023-02-16T22:53:58.671Z,62.69
2023-02-16T22:56:29.691Z,62.19
2023-02-16T22:58:58.199Z,62.25
2023-02-16T23:01:27.415Z,62.64
2023-02-16T23:03:57.569Z,62.62
2023-02-16T23:06:27.896Z,63.53
2023-02-16T23:08:58.011Z,63.86
2023-02-16T23:11:28.603Z,63.14
2023-02-16T23:13:56.598Z,63.09
2023-02-16T23:16:26.896Z,63.67
2023-02-16T23:18:56.101Z,63.66
2023-02-16T23:21:25.532Z,63.76
2023-02-16T23:23:54.674Z,63.38
2023-02-16T23:26:24.960Z,63.11
2023-02-16T23:28:56.706Z,63.17
2023-02-16T23:31:24.848Z,63.37
2023-02-16T23:33:53.384Z,63.02
2023-02-16T23:36:21.303Z,64.45
2023-02-16T23:38:49.198Z,63.88
2023-02-16T23:41:17.170Z,63.56
2023-02-16T23:43:45.335Z,63.86
2023-02-16T23:46:14.673Z,64.16
2023-02-16T23:48:42.629Z,63.71
2023-02-16T23:51:12.087Z,64.09
2023-02-16T23:53:40.287Z,64.24
2023-02-16T23:56:12.092Z,63.94
2023-02-16T23:58:42.225Z,64.36
